createdAt,value
2022-12-27T00:01:42.971Z,35.19
2022-12-27T00:04:20.513Z,35.10
2022-12-27T00:06:52.417Z,35.14
2022-12-27T00:09:23.342Z,34.91
2022-12-27T00:12:01.511Z,35.48
2022-12-27T00:14:33.191Z,35.23
2022-12-27T00:17:03.002Z,35.00
2022-12-27T00:19:31.361Z,35.25
2022-12-27T00:21:59.880Z,35.64
2022-12-27T00:24:29.678Z,35.24
2022-12-27T00:26:58.214Z,35.28
2022-12-27T00:29:26.470Z,35.23
2022-12-27T00:31:55.005Z,35.12
2022-12-27T00:34:23.438Z,35.21
2022-12-27T00:36:52.168Z,34.79
2022-12-27T00:39:20.451Z,35.08
2022-12-27T00:41:50.651Z,34.43
2022-12-27T00:44:19.096Z,35.16
2022-12-27T00:46:47.794Z,35.09
2022-12-27T00:49:16.117Z,34.73
2022-12-27T00:51:45.127Z,34.83
2022-12-27T00:54:13.437Z,35.06
2022-12-27T00:56:42.203Z,34.59
2022-12-27T00:59:13.471Z,34.81
2022-12-27T01:01:42.612Z,34.66
2022-12-27T01:04:13.455Z,34.33
2022-12-27T01:06:42.420Z,34.75
2022-12-27T01:09:10.688Z,35.04
2022-12-27T01:11:41.357Z,34.75
2022-12-27T01:14:09.604Z,34.75
2022-12-27T01:16:40.770Z,34.59
2022-12-27T01:19:09.101Z,34.83
2022-12-27T01:21:37.664Z,34.74
2022-12-27T01:24:07.318Z,34.68
2022-12-27T01:26:35.996Z,34.86
2022-12-27T01:29:04.298Z,34.20
2022-12-27T01:31:32.902Z,34.47
2022-12-27T01:34:04.538Z,34.21
2022-12-27T01:36:33.193Z,35.12
2022-12-27T01:39:01.809Z,34.65
2022-12-27T01:41:49.879Z,34.73
2022-12-27T01:45:02.706Z,33.34
2022-12-27T01:47:38.340Z,34.02
2022-12-27T01:50:16.569Z,33.76
2022-12-27T01:52:49.530Z,34.06
2022-12-27T01:55:23.279Z,34.31
2022-12-27T01:57:54.406Z,34.80
2022-12-27T02:00:22.804Z,34.93
2022-12-27T02:02:52.160Z,35.11
2022-12-27T02:05:23.548Z,35.25
2022-12-27T02:07:59.611Z,35.03
2022-12-27T02:10:29.706Z,35.36
2022-12-27T02:12:58.972Z,35.56
2022-12-27T02:15:27.197Z,35.72
2022-12-27T02:17:55.787Z,35.89
2022-12-27T02:20:27.230Z,35.76
2022-12-27T02:24:04.582Z,35.01
2022-12-27T02:26:40.500Z,35.59
2022-12-27T02:29:28.754Z,35.62
2022-12-27T02:32:00.803Z,36.15
2022-12-27T02:34:35.296Z,36.65
2022-12-27T02:37:06.336Z,36.38
2022-12-27T02:39:38.387Z,36.80
2022-12-27T02:42:24.934Z,36.91
2022-12-27T02:45:14.550Z,36.81
2022-12-27T02:48:01.033Z,37.20
2022-12-27T02:50:54.035Z,36.45
2022-12-27T02:53:32.063Z,36.49
2022-12-27T02:56:27.443Z,36.54
2022-12-27T02:59:05.022Z,36.83
2022-12-27T03:02:00.837Z,36.31
2022-12-27T03:04:45.150Z,36.27
2022-12-27T03:07:27.833Z,36.14
2022-12-27T03:10:33.359Z,35.49
2022-12-27T03:13:28.858Z,35.77
2022-12-27T03:16:06.762Z,35.77
2022-12-27T03:18:47.883Z,35.34
2022-12-27T03:21:37.723Z,35.74
2022-12-27T03:24:36.002Z,36.15
2022-12-27T03:27:07.344Z,35.79
2022-12-27T03:29:53.219Z,36.32
2022-12-27T03:32:40.133Z,35.87
2022-12-27T03:35:14.751Z,35.33
2022-12-27T03:38:05.693Z,35.35
2022-12-27T03:40:41.234Z,35.09
2022-12-27T03:43:13.994Z,34.78
2022-12-27T03:46:09.954Z,34.82
2022-12-27T03:48:45.384Z,35.14
2022-12-27T03:51:16.496Z,34.98
2022-12-27T03:53:46.515Z,35.11
2022-12-27T03:56:15.018Z,35.84
2022-12-27T03:58:43.403Z,35.79
2022-12-27T04:01:11.998Z,35.85
2022-12-27T04:03:40.485Z,35.44
2022-12-27T04:06:09.232Z,35.86
2022-12-27T04:08:56.247Z,35.49
2022-12-27T04:11:42.324Z,36.34
2022-12-27T04:14:28.047Z,36.27
2022-12-27T04:17:14.266Z,36.58
2022-12-27T04:20:00.309Z,36.37
2022-12-27T04:22:46.434Z,36.16
2022-12-27T04:25:33.416Z,36.20
2022-12-27T04:28:19.729Z,35.98
2022-12-27T04:31:05.417Z,36.10
2022-12-27T04:33:51.527Z,35.78
2022-12-27T04:36:19.952Z,35.63
2022-12-27T04:38:48.636Z,36.06
2022-12-27T04:41:36.335Z,35.32
2022-12-27T04:44:22.714Z,35.66
2022-12-27T04:47:08.309Z,35.28
2022-12-27T04:49:59.889Z,35.33
2022-12-27T04:52:45.661Z,34.84
2022-12-27T04:55:19.538Z,34.26
2022-12-27T04:57:49.739Z,34.95
2022-12-27T05:00:36.625Z,34.83
2022-12-27T05:03:06.967Z,34.32
2022-12-27T05:05:36.150Z,34.84
2022-12-27T05:08:22.656Z,34.75
2022-12-27T05:11:08.622Z,34.85
2022-12-27T05:13:55.888Z,34.54
2022-12-27T05:16:26.655Z,34.77
2022-12-27T05:18:55.245Z,34.58
2022-12-27T05:21:23.877Z,35.04
2022-12-27T05:24:10.106Z,35.08
2022-12-27T05:26:39.580Z,35.17
2022-12-27T05:29:10.123Z,35.19
2022-12-27T05:31:38.773Z,35.87
2022-12-27T05:34:07.617Z,35.31
2022-12-27T05:36:36.144Z,35.68
2022-12-27T05:39:04.566Z,35.41
2022-12-27T05:41:33.324Z,35.46
2022-12-27T05:44:06.750Z,34.98
2022-12-27T05:46:37.726Z,34.04
2022-12-27T05:49:06.065Z,33.97
2022-12-27T05:51:34.667Z,33.82
2022-12-27T05:54:03.026Z,33.87
2022-12-27T05:56:31.659Z,33.54
2022-12-27T05:58:59.874Z,33.04
2022-12-27T06:01:28.560Z,32.45
2022-12-27T06:03:58.382Z,31.97
2022-12-27T06:06:27.320Z,32.16
2022-12-27T06:08:56.375Z,32.30
2022-12-27T06:11:24.923Z,32.15
2022-12-27T06:13:55.229Z,32.12
2022-12-27T06:16:24.497Z,32.39
2022-12-27T06:18:52.785Z,32.71
2022-12-27T06:21:23.142Z,32.40
2022-12-27T06:23:51.770Z,32.57
2022-12-27T06:26:22.312Z,32.63
2022-12-27T06:28:50.983Z,32.73
2022-12-27T06:31:20.887Z,33.04
2022-12-27T06:33:50.015Z,33.19
2022-12-27T06:36:20.677Z,33.36
2022-12-27T06:38:50.407Z,33.26
2022-12-27T06:41:20.172Z,33.48
2022-12-27T06:43:48.964Z,33.84
2022-12-27T06:46:19.273Z,33.80
2022-12-27T06:48:48.060Z,33.78
2022-12-27T06:51:19.023Z,33.59
2022-12-27T06:53:47.477Z,34.04
2022-12-27T06:56:19.453Z,34.10
2022-12-27T06:58:48.622Z,34.32
2022-12-27T07:01:19.481Z,33.90
2022-12-27T07:03:50.897Z,33.92
2022-12-27T07:06:19.849Z,34.36
2022-12-27T07:08:48.951Z,34.54
2022-12-27T07:11:20.343Z,34.32
2022-12-27T07:13:51.429Z,34.37
2022-12-27T07:16:22.625Z,34.57
2022-12-27T07:18:51.141Z,34.34
2022-12-27T07:21:22.018Z,34.39
2022-12-27T07:23:50.842Z,34.26
2022-12-27T07:26:22.843Z,33.67
2022-12-27T07:28:51.562Z,34.30
2022-12-27T07:31:23.372Z,34.07
2022-12-27T07:33:52.530Z,33.73
2022-12-27T07:36:22.827Z,32.99
2022-12-27T07:38:51.167Z,32.09
2022-12-27T07:41:22.077Z,31.24
2022-12-27T07:43:50.669Z,31.13
2022-12-27T07:46:21.812Z,30.94
2022-12-27T07:48:50.791Z,30.81
2022-12-27T07:51:20.211Z,31.17
2022-12-27T07:53:50.123Z,30.85
2022-12-27T07:56:26.146Z,30.73
2022-12-27T07:58:56.121Z,30.40
2022-12-27T08:01:25.787Z,30.20
2022-12-27T08:03:54.543Z,29.93
2022-12-27T08:06:25.230Z,29.18
2022-12-27T08:08:54.860Z,29.61
2022-12-27T08:11:26.846Z,29.56
2022-12-27T08:13:55.679Z,29.71
2022-12-27T08:16:26.550Z,29.97
2022-12-27T08:18:55.237Z,29.92
2022-12-27T08:21:24.378Z,29.79
2022-12-27T08:23:53.545Z,29.89
2022-12-27T08:26:22.431Z,28.94
2022-12-27T08:28:52.544Z,26.51
2022-12-27T08:31:21.384Z,25.32
2022-12-27T08:33:56.536Z,23.35
2022-12-27T08:39:16.785Z,20.70
2022-12-27T08:41:45.628Z,21.28
2022-12-27T08:44:16.615Z,22.28
2022-12-27T08:46:45.516Z,22.92
2022-12-27T08:49:14.096Z,22.67
2022-12-27T08:51:43.058Z,22.83
2022-12-27T08:54:11.882Z,21.59
2022-12-27T08:56:40.477Z,20.77
2022-12-27T08:59:09.075Z,20.96
2022-12-27T09:01:39.459Z,19.54
2022-12-27T09:04:08.206Z,17.57
2022-12-27T09:06:37.023Z,17.11
2022-12-27T09:09:05.677Z,16.10
2022-12-27T09:11:35.818Z,16.00
2022-12-27T09:14:05.902Z,15.70
2022-12-27T09:16:35.790Z,15.75
2022-12-27T09:19:06.036Z,15.91
2022-12-27T09:21:35.219Z,14.96
2022-12-27T09:24:03.906Z,13.47
2022-12-27T09:26:32.697Z,13.71
2022-12-27T09:29:01.733Z,13.17
2022-12-27T09:31:31.075Z,13.36
2022-12-27T09:33:59.834Z,14.72
2022-12-27T09:36:30.869Z,14.96
2022-12-27T09:38:59.879Z,16.12
2022-12-27T09:44:34.762Z,16.49
2022-12-27T09:47:06.601Z,15.85
2022-12-27T09:49:37.690Z,16.44
2022-12-27T09:52:08.490Z,14.86
2022-12-27T09:54:40.296Z,14.90
2022-12-27T09:57:20.199Z,14.25
2022-12-27T09:59:51.160Z,13.22
2022-12-27T10:02:23.037Z,12.60
2022-12-27T10:05:19.298Z,12.03
2022-12-27T10:07:50.307Z,10.71
2022-12-27T10:10:26.558Z,11.10
2022-12-27T10:13:06.748Z,10.34
2022-12-27T10:15:44.203Z,10.13
2022-12-27T10:18:20.175Z,10.05
2022-12-27T10:20:56.783Z,8.99
2022-12-27T10:23:30.369Z,9.23
2022-12-27T10:26:01.813Z,8.73
2022-12-27T10:28:37.812Z,9.14
2022-12-27T10:31:06.770Z,8.68
2022-12-27T10:33:36.547Z,8.81
2022-12-27T10:36:10.860Z,9.07
2022-12-27T10:38:40.823Z,8.59
2022-12-27T10:41:23.944Z,8.65
2022-12-27T10:43:54.236Z,8.72
2022-12-27T10:46:30.684Z,8.84
2022-12-27T10:51:52.595Z,8.75
2022-12-27T10:54:25.654Z,9.23
2022-12-27T10:56:54.729Z,9.93
2022-12-27T10:59:24.900Z,10.21
2022-12-27T11:02:17.388Z,8.99
2022-12-27T11:05:00.208Z,8.72
2022-12-27T11:07:33.268Z,9.98
2022-12-27T11:10:17.299Z,11.29
2022-12-27T11:13:03.126Z,12.56
2022-12-27T11:15:33.300Z,13.34
2022-12-27T11:18:03.314Z,13.39
2022-12-27T11:20:33.796Z,14.24
2022-12-27T11:23:04.553Z,14.72
2022-12-27T11:25:35.383Z,15.27
2022-12-27T11:28:06.187Z,15.58
2022-12-27T11:30:36.732Z,16.18
2022-12-27T11:33:06.990Z,16.83
2022-12-27T11:35:38.316Z,16.81
2022-12-27T11:38:06.846Z,17.57
2022-12-27T11:40:37.008Z,17.55
2022-12-27T11:43:08.367Z,18.13
2022-12-27T11:45:40.349Z,18.01
2022-12-27T11:48:22.365Z,18.19
2022-12-27T11:51:18.792Z,18.26
2022-12-27T11:54:06.898Z,18.01
2022-12-27T11:56:38.553Z,18.43
2022-12-27T11:59:33.389Z,17.52
2022-12-27T12:02:29.218Z,18.06
2022-12-27T12:05:31.572Z,18.18
2022-12-27T12:08:12.653Z,18.37
2022-12-27T12:10:49.184Z,18.16
2022-12-27T12:13:33.472Z,18.28
2022-12-27T12:16:28.212Z,18.07
2022-12-27T12:19:20.838Z,18.33
2022-12-27T12:22:00.161Z,18.57
2022-12-27T12:24:40.825Z,18.49
2022-12-27T12:27:26.155Z,18.72
2022-12-27T12:30:16.827Z,18.89
2022-12-27T12:32:57.387Z,19.19
2022-12-27T12:35:33.685Z,19.54
2022-12-27T12:42:11.434Z,19.06
2022-12-27T12:45:13.822Z,19.06
2022-12-27T12:47:54.116Z,19.35
2022-12-27T12:50:35.500Z,19.18
2022-12-27T12:53:19.846Z,19.49
2022-12-27T12:55:56.132Z,19.26
2022-12-27T12:58:38.827Z,19.59
2022-12-27T13:01:27.138Z,19.88
2022-12-27T13:04:09.713Z,19.72
2022-12-27T13:07:14.137Z,19.98
2022-12-27T13:09:52.105Z,20.32
2022-12-27T13:12:25.247Z,20.54
2022-12-27T13:15:13.236Z,20.75
2022-12-27T13:17:50.821Z,20.68
2022-12-27T13:20:30.471Z,20.92
2022-12-27T13:23:06.735Z,20.82
2022-12-27T13:25:41.468Z,20.68
2022-12-27T13:28:25.000Z,21.12
2022-12-27T13:30:57.336Z,21.10
2022-12-27T13:33:35.077Z,21.15
2022-12-27T13:36:13.856Z,20.99
2022-12-27T13:39:03.069Z,20.98
2022-12-27T13:41:38.537Z,21.13
2022-12-27T13:44:20.294Z,20.59
2022-12-27T13:47:26.717Z,20.71
2022-12-27T13:50:11.664Z,20.48
2022-12-27T13:52:54.462Z,20.75
2022-12-27T13:55:43.615Z,20.74
2022-12-27T13:58:47.534Z,20.81
2022-12-27T14:01:38.395Z,20.87
2022-12-27T14:04:26.181Z,20.67
2022-12-27T14:07:07.924Z,20.97
2022-12-27T14:09:48.266Z,20.66
2022-12-27T14:12:51.392Z,21.19
2022-12-27T14:15:21.430Z,22.09
2022-12-27T14:17:58.324Z,22.01
2022-12-27T14:20:37.727Z,22.20
2022-12-27T14:23:27.803Z,22.11
2022-12-27T14:26:29.487Z,22.54
2022-12-27T14:29:31.252Z,22.93
2022-12-27T14:32:48.134Z,22.83
2022-12-27T14:35:36.009Z,23.17
2022-12-27T14:38:36.839Z,23.40
2022-12-27T14:41:55.066Z,23.46
2022-12-27T14:45:09.590Z,23.54
2022-12-27T14:48:04.625Z,23.76
2022-12-27T14:50:49.296Z,24.08
2022-12-27T14:54:07.108Z,23.71
2022-12-27T14:56:38.769Z,23.93
2022-12-27T14:59:19.576Z,23.78
2022-12-27T15:01:57.270Z,23.92
2022-12-27T15:05:01.883Z,23.60
2022-12-27T15:07:55.211Z,23.53
2022-12-27T15:10:41.292Z,24.03
2022-12-27T15:13:15.068Z,24.32
2022-12-27T15:15:55.577Z,24.54
2022-12-27T15:18:44.697Z,24.63
2022-12-27T15:21:22.677Z,24.80
2022-12-27T15:23:54.150Z,25.22
2022-12-27T15:26:33.693Z,25.27
2022-12-27T15:29:12.657Z,25.73
2022-12-27T15:31:52.996Z,25.58
2022-12-27T15:34:35.711Z,25.59
2022-12-27T15:37:05.477Z,25.98
2022-12-27T15:39:50.046Z,25.30
2022-12-27T15:42:48.707Z,25.13
2022-12-27T15:45:30.464Z,25.04
2022-12-27T15:48:32.318Z,24.81
2022-12-27T15:51:06.335Z,25.11
2022-12-27T15:53:56.694Z,24.70
2022-12-27T15:56:57.909Z,24.67
2022-12-27T15:59:46.768Z,24.75
2022-12-27T16:02:34.088Z,24.53
2022-12-27T16:05:12.288Z,24.80
2022-12-27T16:07:46.115Z,24.86
2022-12-27T16:10:50.170Z,24.74
2022-12-27T16:13:27.591Z,24.80
2022-12-27T16:15:56.897Z,25.15
2022-12-27T16:18:59.369Z,24.50
2022-12-27T16:21:38.578Z,24.70
2022-12-27T16:24:11.810Z,25.05
2022-12-27T16:26:53.171Z,24.68
2022-12-27T16:29:23.191Z,25.04
2022-12-27T16:31:52.271Z,25.12
2022-12-27T16:34:24.170Z,25.04
2022-12-27T16:36:55.311Z,25.01
2022-12-27T16:39:36.936Z,24.82
2022-12-27T16:42:07.770Z,25.52
2022-12-27T16:44:48.343Z,25.25
2022-12-27T16:47:36.371Z,25.09
2022-12-27T16:50:21.432Z,25.36
2022-12-27T16:52:58.260Z,25.32
2022-12-27T16:55:49.270Z,25.07
2022-12-27T16:58:24.169Z,25.37
2022-12-27T17:00:53.448Z,25.77
2022-12-27T17:03:43.437Z,25.23
2022-12-27T17:06:49.168Z,25.19
2022-12-27T17:09:42.202Z,25.18
2022-12-27T17:12:23.858Z,25.49
2022-12-27T17:14:58.833Z,25.66
2022-12-27T17:17:27.478Z,25.86
2022-12-27T17:19:58.940Z,25.80
2022-12-27T17:22:34.125Z,25.99
2022-12-27T17:25:05.536Z,25.76
2022-12-27T17:27:51.658Z,25.62
2022-12-27T17:30:21.274Z,26.36
2022-12-27T17:33:30.774Z,25.72
2022-12-27T17:36:09.590Z,26.07
2022-12-27T17:38:45.709Z,26.09
2022-12-27T17:41:44.872Z,25.99
2022-12-27T17:44:36.358Z,26.29
2022-12-27T17:47:37.182Z,25.72
2022-12-27T17:50:07.539Z,26.40
2022-12-27T17:52:53.646Z,26.64
2022-12-27T17:55:52.564Z,26.38
2022-12-27T17:58:23.569Z,26.27
2022-12-27T18:00:55.769Z,26.23
2022-12-27T18:03:26.213Z,26.49
2022-12-27T18:05:58.455Z,26.27
2022-12-27T18:08:29.160Z,26.65
2022-12-27T18:10:57.716Z,26.46
2022-12-27T18:13:31.229Z,26.16
2022-12-27T18:15:59.548Z,26.94
2022-12-27T18:18:30.125Z,26.70
2022-12-27T18:20:59.816Z,27.10
2022-12-27T18:23:28.713Z,26.91
2022-12-27T18:25:59.197Z,26.86
2022-12-27T18:28:33.358Z,27.06
2022-12-27T18:31:05.945Z,26.72
2022-12-27T18:33:35.977Z,27.09
2022-12-27T18:36:06.087Z,27.11
2022-12-27T18:38:36.750Z,27.12
2022-12-27T18:41:06.533Z,27.11
2022-12-27T18:43:36.786Z,27.09
2022-12-27T18:46:05.519Z,27.64
2022-12-27T18:48:36.504Z,27.75
2022-12-27T18:51:05.102Z,27.93
2022-12-27T18:53:35.653Z,27.89
2022-12-27T18:56:06.635Z,27.63
2022-12-27T18:58:36.478Z,27.57
2022-12-27T19:01:06.236Z,27.61
2022-12-27T19:03:40.442Z,27.80
2022-12-27T19:06:11.023Z,27.67
2022-12-27T19:08:41.074Z,27.71
2022-12-27T19:11:09.390Z,28.14
2022-12-27T19:13:45.713Z,27.94
2022-12-27T19:16:24.899Z,27.68
2022-12-27T19:18:55.228Z,28.49
2022-12-27T19:21:30.648Z,28.39
2022-12-27T19:24:00.011Z,29.18
2022-12-27T19:26:33.929Z,28.88
2022-12-27T19:29:08.640Z,28.98
2022-12-27T19:31:37.377Z,29.49
2022-12-27T19:34:09.449Z,29.23
2022-12-27T19:36:39.990Z,29.34
2022-12-27T19:39:19.655Z,29.62
2022-12-27T19:41:48.287Z,29.58
2022-12-27T19:44:18.467Z,29.67
2022-12-27T19:46:46.864Z,30.00
2022-12-27T19:49:40.854Z,30.39
2022-12-27T19:52:03.875Z,30.09
2022-12-27T19:54:44.508Z,30.17
2022-12-27T19:57:22.458Z,29.97
2022-12-27T19:59:52.333Z,30.03
2022-12-27T20:02:21.513Z,30.04
2022-12-27T20:04:50.182Z,30.17
2022-12-27T20:07:21.974Z,30.10
2022-12-27T20:09:50.774Z,30.50
2022-12-27T20:12:18.994Z,30.56
2022-12-27T20:28:34.857Z,30.65
2022-12-27T20:31:07.493Z,30.52
2022-12-27T20:34:39.853Z,30.26
2022-12-27T20:37:09.064Z,30.74
2022-12-27T20:39:37.949Z,30.76
2022-12-27T20:42:06.792Z,30.82
2022-12-27T20:44:36.524Z,30.49
2022-12-27T20:47:05.061Z,30.53
2022-12-27T20:49:33.428Z,30.55
2022-12-27T20:52:01.976Z,30.36
2022-12-27T20:54:30.326Z,30.30
2022-12-27T20:56:59.603Z,30.43
2022-12-27T20:59:28.090Z,30.42
2022-12-27T21:01:58.994Z,30.27
2022-12-27T21:04:27.975Z,30.35
2022-12-27T21:06:57.045Z,30.18
2022-12-27T21:09:25.288Z,30.20
2022-12-27T21:11:54.106Z,30.14
2022-12-27T21:14:22.348Z,30.18
2022-12-27T21:16:51.458Z,30.25
2022-12-27T21:19:21.320Z,30.05
2022-12-27T21:21:49.811Z,30.20
2022-12-27T21:24:18.032Z,30.05
2022-12-27T21:26:47.850Z,30.17
2022-12-27T21:29:19.398Z,30.22
2022-12-27T21:31:48.014Z,30.22
2022-12-27T21:34:16.865Z,30.23
2022-12-27T21:36:46.837Z,29.92
2022-12-27T21:39:16.075Z,30.11
2022-12-27T21:41:44.725Z,30.28
2022-12-27T21:44:13.562Z,30.38
2022-12-27T21:46:43.899Z,30.24
2022-12-27T21:49:13.833Z,29.79
2022-12-27T21:51:43.572Z,30.17
2022-12-27T21:54:14.059Z,30.11
2022-12-27T21:56:42.897Z,29.87
2022-12-27T21:59:12.176Z,30.02
2022-12-27T22:01:51.485Z,30.00
2022-12-27T22:04:21.552Z,29.98
2022-12-27T22:06:50.480Z,29.99
2022-12-27T22:09:20.238Z,30.30
2022-12-27T22:11:49.487Z,30.34
2022-12-27T22:14:23.369Z,30.26
2022-12-27T22:16:53.576Z,30.30
2022-12-27T22:19:22.050Z,30.14
2022-12-27T22:21:50.644Z,30.16
2022-12-27T22:24:20.420Z,29.99
2022-12-27T22:26:50.517Z,30.10
2022-12-27T22:29:19.130Z,30.07
2022-12-27T22:31:47.706Z,29.96
2022-12-27T22:34:15.957Z,30.02
2022-12-27T22:36:44.709Z,30.11
2022-12-27T22:39:13.056Z,30.28
2022-12-27T22:41:43.096Z,29.96
2022-12-27T22:44:13.554Z,30.10
2022-12-27T22:47:15.863Z,29.97
2022-12-27T22:49:31.718Z,29.92
2022-12-27T22:52:00.237Z,29.89
2022-12-27T22:55:05.114Z,29.82
2022-12-27T22:57:18.351Z,29.60
2022-12-27T22:59:46.658Z,29.83
2022-12-27T23:02:15.194Z,29.56
2022-12-27T23:04:43.618Z,29.76
2022-12-27T23:07:12.146Z,29.93
2022-12-27T23:09:43.397Z,29.94
2022-12-27T23:12:12.754Z,29.75
2022-12-27T23:14:42.407Z,30.00
2022-12-27T23:17:11.636Z,30.02
2022-12-27T23:19:40.138Z,29.94
2022-12-27T23:22:08.990Z,30.03
2022-12-27T23:24:37.308Z,30.07
2022-12-27T23:27:05.784Z,30.09
2022-12-27T23:29:34.126Z,30.33
2022-12-27T23:32:04.101Z,29.91
2022-12-27T23:34:32.325Z,30.21
2022-12-27T23:37:01.269Z,30.12
2022-12-27T23:39:29.661Z,30.07
2022-12-27T23:41:58.154Z,30.30
2022-12-27T23:44:32.911Z,30.21
2022-12-27T23:47:06.236Z,29.97
2022-12-27T23:49:35.899Z,30.22
2022-12-27T23:52:04.803Z,30.29
2022-12-27T23:54:33.823Z,30.59
2022-12-27T23:57:22.117Z,30.21
2022-12-27T23:59:52.109Z,30.27
